Time;durP1;ratioP1;P1;durP2;ratioP2;P2;SDS_P1;SDS_P2;PMS_P1;PMS_P2;Temp;Humidity;BMP_temperature;BMP_pressure;BME280_temperature;BME280_humidity;BME280_pressure;Samples;Min_cycle;Max_cycle;Signal;HPM_P1;HPM_P2
2022/02/01 00:01:32;;;;;;;2.85;0.30;;;18.80;38.70;;;;;;5019139;28;20111;-50
2022/02/01 00:04:03;;;;;;;0.32;0.20;;;18.70;38.00;;;;;;5018615;28;20397;-51
2022/02/01 00:06:44;;;;;;;1.55;0.52;;;18.80;38.00;;;;;;5022230;28;20038;-46
2022/02/01 00:09:20;;;;;;;4.07;0.20;;;18.80;38.00;;;;;;5022939;28;20065;-50
2022/02/01 00:11:57;;;;;;;0.85;0.20;;;18.70;38.00;;;;;;5020706;28;20046;-46
2022/02/01 00:14:33;;;;;;;1.65;0.10;;;18.70;37.90;;;;;;5021242;28;20048;-46
2022/02/01 00:17:21;;;;;;;1.30;0.95;;;18.80;38.60;;;;;;5021445;28;20125;-47
2022/02/01 00:20:06;;;;;;;0.68;0.20;;;18.70;37.90;;;;;;5021742;28;20049;-46
2022/02/01 00:36:38;;;;;;;1.95;0.10;;;18.70;37.90;;;;;;5051168;28;20064;-52
2022/02/01 00:39:10;;;;;;;2.10;0.20;;;18.70;37.90;;;;;;5049792;28;20045;-49
2022/02/01 00:41:42;;;;;;;1.42;0.43;;;18.70;37.90;;;;;;5044840;28;20045;-53
2022/02/01 00:44:09;;;;;;;2.20;0.32;;;18.70;37.90;;;;;;5056631;28;20049;-48
2022/02/01 00:46:36;;;;;;;2.30;0.55;;;18.70;37.90;;;;;;5061521;28;20044;-49
2022/02/01 00:49:03;;;;;;;1.33;0.22;;;18.70;37.80;;;;;;5057586;28;20059;-51
2022/02/01 00:51:30;;;;;;;2.78;0.10;;;18.70;37.80;;;;;;5051962;28;20054;-52
2022/02/01 00:53:57;;;;;;;2.60;0.38;;;18.70;37.80;;;;;;5051114;28;20180;-48
2022/02/01 00:56:26;;;;;;;4.55;0.70;;;18.70;37.80;;;;;;5044702;28;20060;-53
2022/02/01 00:58:53;;;;;;;0.60;0.20;;;18.70;37.80;;;;;;5051398;28;20144;-50
2022/02/01 01:01:20;;;;;;;2.55;0.52;;;18.70;37.80;;;;;;5052584;28;20041;-52
2022/02/01 01:03:47;;;;;;;1.23;0.13;;;18.70;37.80;;;;;;5049632;28;20947;-51
2022/02/01 01:06:15;;;;;;;0.88;0.30;;;18.70;37.80;;;;;;5071631;28;20413;-50
2022/02/01 01:08:42;;;;;;;0.60;0.47;;;18.60;37.70;;;;;;5068788;28;20041;-47
2022/02/01 01:11:10;;;;;;;2.60;0.30;;;18.70;37.70;;;;;;5073194;28;20056;-52
2022/02/01 01:14:14;;;;;;;1.10;0.38;;;18.70;37.70;;;;;;5071266;28;20124;-48
2022/02/01 01:17:09;;;;;;;0.88;0.20;;;18.60;37.70;;;;;;5071078;28;20053;-49
2022/02/01 01:43:33;;;;;;;1.10;0.40;;;18.50;37.60;;;;;;5068029;28;20103;-46
2022/02/01 01:44:35;;;;;;;1.23;0.20;;;18.60;37.70;;;;;;5065314;28;20040;-50
2022/02/01 01:53:10;;;;;;;3.53;0.20;;;18.50;37.70;;;;;;5004821;28;20765;-50
2022/02/01 01:55:39;;;;;;;1.55;0.28;;;18.50;37.60;;;;;;5017027;28;20421;-52
2022/02/01 01:58:07;;;;;;;1.17;0.20;;;18.50;37.70;;;;;;5012923;28;20429;-52
2022/02/01 02:00:50;;;;;;;0.82;0.35;;;18.60;37.70;;;;;;5009962;28;20445;-47
2022/02/01 02:03:19;;;;;;;3.35;0.30;;;18.50;37.60;;;;;;5008327;28;20045;-50
2022/02/01 02:05:46;;;;;;;1.50;0.20;;;18.50;37.60;;;;;;5021615;28;20049;-51
2022/02/01 02:08:14;;;;;;;1.38;0.43;;;18.50;37.60;;;;;;5016145;28;20045;-48
2022/02/01 02:10:51;;;;;;;0.50;0.50;;;18.50;37.60;;;;;;5010182;28;20062;-49
2022/02/01 02:16:06;;;;;;;0.82;0.13;;;18.50;37.60;;;;;;4971356;28;20043;-48
2022/02/01 02:18:36;;;;;;;1.08;0.20;;;18.50;37.60;;;;;;4971281;28;20051;-49
2022/02/01 02:21:05;;;;;;;1.52;0.20;;;18.50;37.50;;;;;;4967377;28;20057;-49
2022/02/01 02:23:33;;;;;;;2.70;0.38;;;18.60;37.60;;;;;;4982171;28;20113;-49
2022/02/01 02:26:05;;;;;;;1.85;0.20;;;18.50;37.50;;;;;;4969687;28;20039;-53
2022/02/01 02:28:33;;;;;;;1.30;0.10;;;18.50;37.50;;;;;;5030105;28;20536;-51
2022/02/01 02:31:01;;;;;;;1.13;0.45;;;18.50;38.10;;;;;;5028852;28;20045;-50
2022/02/01 02:33:28;;;;;;;1.30;0.20;;;18.50;37.50;;;;;;5034416;28;20041;-52
2022/02/01 02:36:02;;;;;;;1.05;0.10;;;18.60;37.60;;;;;;5031123;28;20041;-48
2022/02/01 02:38:36;;;;;;;1.52;0.13;;;18.60;37.50;;;;;;5026359;28;20069;-53
2022/02/01 02:41:23;;;;;;;0.70;0.28;;;18.50;37.50;;;;;;5029335;28;20085;-51
2022/02/01 02:46:37;;;;;;;2.10;0.30;;;18.60;37.60;;;;;;5033425;28;20049;-46
2022/02/01 02:49:06;;;;;;;0.63;0.13;;;18.50;37.50;;;;;;5034538;28;20128;-45
2022/02/01 02:51:33;;;;;;;2.40;0.20;;;18.50;37.50;;;;;;5033240;28;20041;-46
2022/02/01 02:54:05;;;;;;;2.50;0.40;;;18.50;37.50;;;;;;5067436;28;20063;-46
2022/02/01 02:56:32;;;;;;;3.05;0.30;;;18.60;37.50;;;;;;5067736;28;20072;-47
2022/02/01 02:58:59;;;;;;;3.83;0.40;;;18.60;37.50;;;;;;5074071;28;20055;-47
2022/02/01 03:01:26;;;;;;;2.22;0.50;;;18.60;37.50;;;;;;5074644;28;20041;-51
2022/02/01 03:03:54;;;;;;;0.60;0.20;;;18.50;37.50;;;;;;5072710;28;20052;-45
2022/02/01 03:06:21;;;;;;;4.68;0.35;;;18.60;37.50;;;;;;5074956;28;20037;-47
2022/02/01 03:08:48;;;;;;;1.70;0.20;;;18.60;37.50;;;;;;5072100;28;20775;-46
2022/02/01 03:11:17;;;;;;;2.92;0.60;;;18.60;37.50;;;;;;5076101;28;20887;-46
2022/02/01 03:13:49;;;;;;;1.10;0.28;;;18.60;37.50;;;;;;5074296;28;20051;-48
2022/02/01 03:16:33;;;;;;;2.33;0.35;;;18.60;37.50;;;;;;5076935;28;20063;-48
2022/02/01 03:21:45;;;;;;;1.45;0.22;;;18.60;37.50;;;;;;5075453;28;20413;-45
2022/02/01 03:24:12;;;;;;;2.83;0.32;;;18.60;37.50;;;;;;5074491;28;20575;-46
2022/02/01 03:26:40;;;;;;;1.95;0.20;;;18.60;37.50;;;;;;5072872;28;20040;-49
2022/02/01 03:29:07;;;;;;;2.97;0.50;;;18.60;37.50;;;;;;5071779;28;20512;-47
2022/02/01 03:31:34;;;;;;;0.98;0.13;;;18.60;37.50;;;;;;5076209;28;20047;-46
2022/02/01 03:34:01;;;;;;;0.93;0.40;;;18.60;37.50;;;;;;5076107;28;20531;-48
2022/02/01 03:36:28;;;;;;;1.38;0.22;;;18.60;37.50;;;;;;5072222;28;20041;-45
2022/02/01 03:38:55;;;;;;;3.22;0.20;;;18.60;37.50;;;;;;5070693;28;20071;-48
2022/02/01 03:41:22;;;;;;;1.48;0.30;;;18.60;37.50;;;;;;5071882;28;20062;-49
2022/02/01 03:43:51;;;;;;;2.08;0.10;;;18.60;37.50;;;;;;5078411;28;20048;-53
2022/02/01 03:46:19;;;;;;;1.17;0.30;;;18.60;37.50;;;;;;5071893;28;20055;-49
2022/02/01 03:48:46;;;;;;;1.55;0.10;;;18.60;37.50;;;;;;5076428;28;20051;-49
2022/02/01 03:51:13;;;;;;;0.40;0.40;;;18.60;37.50;;;;;;5070509;28;20045;-50
2022/02/01 03:53:41;;;;;;;2.20;0.20;;;18.60;37.50;;;;;;5073312;28;20131;-51
2022/02/01 03:56:08;;;;;;;1.73;0.20;;;18.60;37.50;;;;;;5070366;28;20045;-46
2022/02/01 03:58:35;;;;;;;2.70;0.85;;;18.60;37.50;;;;;;5077162;28;20068;-49
2022/02/01 04:01:04;;;;;;;3.08;0.40;;;18.60;37.50;;;;;;5079007;28;20048;-48
2022/02/01 04:03:31;;;;;;;0.85;0.15;;;18.60;38.10;;;;;;5071584;28;20036;-45
2022/02/01 04:05:58;;;;;;;0.85;0.30;;;18.60;37.60;;;;;;5071042;28;20040;-46
2022/02/01 04:08:25;;;;;;;0.82;0.20;;;18.60;37.50;;;;;;5073229;28;20043;-50
2022/02/01 04:10:52;;;;;;;0.50;0.10;;;18.60;37.60;;;;;;5073709;28;20052;-47
2022/02/01 04:13:20;;;;;;;2.08;0.28;;;18.60;37.60;;;;;;5073570;28;20636;-46
2022/02/01 04:15:47;;;;;;;0.95;0.38;;;18.50;37.50;;;;;;5076609;28;20539;-48
2022/02/01 04:18:16;;;;;;;0.45;0.30;;;18.60;37.60;;;;;;5071975;28;20036;-50
2022/02/01 04:20:44;;;;;;;2.08;0.32;;;18.60;37.60;;;;;;5067110;28;20413;-50
2022/02/01 04:23:11;;;;;;;2.67;0.40;;;18.60;37.60;;;;;;5072946;28;20068;-49
2022/02/01 04:25:38;;;;;;;0.80;0.20;;;18.60;37.60;;;;;;5076585;28;20052;-46
2022/02/01 04:28:05;;;;;;;1.98;0.35;;;18.60;37.60;;;;;;5069697;28;20041;-50
2022/02/01 04:30:32;;;;;;;2.10;0.13;;;18.60;37.60;;;;;;5073997;28;20086;-45
2022/02/01 04:32:59;;;;;;;1.77;0.93;;;18.60;37.60;;;;;;5070052;28;20447;-46
2022/02/01 04:35:29;;;;;;;1.50;0.20;;;18.60;37.60;;;;;;5072793;28;20040;-48
2022/02/01 04:37:57;;;;;;;1.45;0.10;;;18.60;37.60;;;;;;5067985;28;20568;-48
2022/02/01 04:40:26;;;;;;;1.38;0.10;;;18.60;37.70;;;;;;5074460;28;20045;-50
2022/02/01 04:42:54;;;;;;;1.88;0.10;;;18.60;37.70;;;;;;5076143;28;20036;-48
2022/02/01 04:45:23;;;;;;;0.82;0.10;;;18.60;37.70;;;;;;5071327;28;20040;-48
2022/02/01 04:47:52;;;;;;;1.15;0.10;;;18.60;37.70;;;;;;5069700;28;20039;-48
2022/02/01 04:50:22;;;;;;;2.60;0.40;;;18.60;37.70;;;;;;5071951;28;20055;-52
2022/02/01 04:52:53;;;;;;;1.50;0.43;;;18.60;37.80;;;;;;5078452;28;20131;-46
2022/02/01 04:55:21;;;;;;;1.10;0.38;;;18.60;37.80;;;;;;5070614;28;20647;-52
2022/02/01 04:57:56;;;;;;;1.38;0.22;;;18.60;37.80;;;;;;5075121;28;20050;-52
2022/02/01 05:00:25;;;;;;;1.67;0.20;;;18.60;37.80;;;;;;5070648;28;20060;-52
2022/02/01 05:02:53;;;;;;;0.63;0.13;;;18.60;37.80;;;;;;5068628;28;20097;-48
2022/02/01 05:05:28;;;;;;;1.08;0.13;;;18.60;37.80;;;;;;5070322;28;20052;-51
2022/02/01 05:07:59;;;;;;;1.50;0.20;;;18.60;37.80;;;;;;5076857;28;20543;-50
2022/02/01 05:10:26;;;;;;;0.77;0.30;;;18.60;37.90;;;;;;5071339;28;20504;-49
2022/02/01 05:12:55;;;;;;;3.20;0.40;;;18.60;37.90;;;;;;5073097;28;20037;-50
2022/02/01 05:15:22;;;;;;;0.57;0.35;;;18.60;37.90;;;;;;5071665;28;20106;-51
2022/02/01 05:17:54;;;;;;;1.00;0.10;;;18.60;37.90;;;;;;5072984;28;20036;-54
2022/02/01 05:20:28;;;;;;;2.17;0.22;;;18.60;37.90;;;;;;5066304;28;20577;-47
2022/02/01 05:22:56;;;;;;;1.25;0.30;;;18.60;37.90;;;;;;5072062;28;20345;-49
2022/02/01 05:25:28;;;;;;;0.38;0.15;;;18.60;37.90;;;;;;5076131;28;20055;-49
2022/02/01 05:27:58;;;;;;;0.75;0.10;;;18.60;37.90;;;;;;5070145;28;20040;-46
2022/02/01 05:30:27;;;;;;;4.13;0.30;;;18.60;37.90;;;;;;5072889;28;20085;-51
2022/02/01 05:32:54;;;;;;;2.80;0.10;;;18.60;38.00;;;;;;5069170;28;20032;-53
2022/02/01 05:35:22;;;;;;;4.22;1.08;;;18.60;38.00;;;;;;5072375;28;20048;-53
2022/02/01 05:37:49;;;;;;;1.70;0.30;;;18.60;38.00;;;;;;5071552;28;20508;-46
2022/02/01 05:40:26;;;;;;;1.25;0.20;;;18.60;38.00;;;;;;5073930;28;20119;-47
2022/02/01 05:43:00;;;;;;;1.55;0.10;;;18.60;38.00;;;;;;5071795;28;20051;-48
2022/02/01 05:45:28;;;;;;;1.80;0.10;;;18.60;38.00;;;;;;5070474;28;20040;-50
2022/02/01 05:47:55;;;;;;;1.45;0.20;;;18.60;38.00;;;;;;5069271;28;20040;-51
2022/02/01 05:50:22;;;;;;;1.52;0.20;;;18.60;38.00;;;;;;5070817;28;20133;-51
2022/02/01 05:52:49;;;;;;;1.70;0.10;;;18.60;38.00;;;;;;5074260;28;20039;-48
2022/02/01 05:55:17;;;;;;;2.33;0.40;;;18.70;38.10;;;;;;5071944;28;20523;-51
2022/02/01 05:57:45;;;;;;;1.42;0.20;;;18.70;38.10;;;;;;5072422;28;20059;-47
2022/02/01 06:00:15;;;;;;;0.98;0.38;;;18.70;38.10;;;;;;5069541;28;20059;-48
2022/02/01 06:02:42;;;;;;;1.00;0.10;;;18.70;38.20;;;;;;5066331;28;20090;-46
2022/02/01 06:05:10;;;;;;;0.68;0.22;;;18.70;38.20;;;;;;5070836;28;20037;-45
2022/02/01 06:07:37;;;;;;;0.88;0.13;;;18.70;38.20;;;;;;5075307;28;20127;-51
2022/02/01 06:10:04;;;;;;;1.08;0.10;;;18.70;38.20;;;;;;5069480;28;20040;-50
2022/02/01 06:12:40;;;;;;;2.28;0.63;;;18.70;38.20;;;;;;5072327;28;20044;-50
2022/02/01 06:15:10;;;;;;;0.90;0.10;;;18.70;38.20;;;;;;5073782;28;20040;-49
2022/02/01 06:17:37;;;;;;;5.10;0.47;;;18.70;38.30;;;;;;5071169;28;20040;-47
2022/02/01 06:20:06;;;;;;;1.02;0.20;;;18.70;38.30;;;;;;5068959;28;20044;-49
2022/02/01 06:22:33;;;;;;;0.20;0.10;;;18.70;38.30;;;;;;5074009;28;20059;-50
2022/02/01 06:25:00;;;;;;;0.82;0.10;;;18.70;38.30;;;;;;5075692;28;20036;-50
2022/02/01 06:27:28;;;;;;;0.30;0.10;;;18.70;38.30;;;;;;5069367;28;20086;-51
2022/02/01 06:29:55;;;;;;;1.50;0.10;;;18.70;38.40;;;;;;5068006;28;20051;-47
2022/02/01 06:32:23;;;;;;;1.45;0.30;;;18.70;38.40;;;;;;5069211;28;20100;-51
2022/02/01 06:34:50;;;;;;;2.35;0.10;;;18.70;38.40;;;;;;5077155;28;20051;-48
2022/02/01 06:37:17;;;;;;;2.47;0.10;;;18.70;38.40;;;;;;5069138;28;20041;-47
2022/02/01 06:39:44;;;;;;;1.85;0.10;;;18.70;38.40;;;;;;5074183;28;20488;-49
2022/02/01 06:42:11;;;;;;;1.42;0.20;;;18.70;38.40;;;;;;5070099;28;20365;-50
2022/02/01 06:44:40;;;;;;;1.65;0.30;;;18.70;38.40;;;;;;5081102;28;20032;-50
2022/02/01 06:47:07;;;;;;;1.95;0.10;;;18.70;38.40;;;;;;5070534;28;20049;-49
2022/02/01 06:49:36;;;;;;;1.58;0.55;;;18.70;38.50;;;;;;5076209;28;20051;-52
2022/02/01 06:52:04;;;;;;;1.75;0.22;;;18.70;38.50;;;;;;5076964;28;20495;-50
2022/02/01 06:54:33;;;;;;;1.75;0.20;;;18.70;38.50;;;;;;5079659;28;20127;-49
2022/02/01 06:57:00;;;;;;;2.28;0.30;;;18.70;38.50;;;;;;5069258;28;20036;-50
2022/02/01 06:59:27;;;;;;;1.55;0.10;;;18.70;38.50;;;;;;5069263;28;20145;-47
2022/02/01 07:01:54;;;;;;;1.05;0.10;;;18.70;38.50;;;;;;5069784;28;20045;-46
2022/02/01 07:04:21;;;;;;;2.10;0.10;;;18.70;38.50;;;;;;5072354;28;20125;-46
2022/02/01 07:06:50;;;;;;;2.38;0.10;;;18.70;38.60;;;;;;5073730;28;20037;-47
2022/02/01 07:09:18;;;;;;;0.75;0.25;;;18.70;38.60;;;;;;5068981;28;20066;-52
2022/02/01 07:11:46;;;;;;;0.82;0.25;;;18.70;38.60;;;;;;5066516;28;20048;-54
2022/02/01 07:14:13;;;;;;;1.48;0.30;;;18.70;38.60;;;;;;5071150;28;20052;-45
2022/02/01 07:16:41;;;;;;;1.25;0.10;;;18.70;38.60;;;;;;5078286;28;20055;-45
2022/02/01 07:19:08;;;;;;;0.55;0.15;;;18.70;38.60;;;;;;5074276;28;20442;-45
2022/02/01 07:21:35;;;;;;;0.52;0.10;;;18.70;38.60;;;;;;5081460;28;20055;-45
2022/02/01 07:24:05;;;;;;;1.95;0.30;;;18.70;39.20;;;;;;5071929;28;20040;-47
2022/02/01 07:26:33;;;;;;;2.90;0.38;;;18.70;38.70;;;;;;5074076;28;20473;-45
2022/02/01 07:29:00;;;;;;;0.10;0.10;;;18.70;38.70;;;;;;5073882;28;20105;-52
2022/02/01 07:31:27;;;;;;;1.25;0.77;;;18.70;38.70;;;;;;5077518;28;20702;-50
2022/02/01 07:33:54;;;;;;;2.05;0.10;;;18.70;38.70;;;;;;5078357;28;20036;-52
2022/02/01 07:36:22;;;;;;;2.70;0.10;;;18.70;38.70;;;;;;5083058;28;20097;-49
2022/02/01 07:38:49;;;;;;;1.50;0.10;;;18.70;38.80;;;;;;5069733;28;20040;-49
2022/02/01 07:41:17;;;;;;;0.63;0.10;;;18.70;38.80;;;;;;5072397;28;20591;-50
2022/02/01 07:43:45;;;;;;;1.70;0.30;;;18.70;38.80;;;;;;5073735;28;20488;-52
2022/02/01 07:46:15;;;;;;;1.48;0.20;;;18.70;38.80;;;;;;5074020;28;20571;-49
2022/02/01 07:48:42;;;;;;;1.23;0.13;;;18.70;38.80;;;;;;5078191;28;20497;-52
2022/02/01 07:51:09;;;;;;;0.80;0.20;;;18.70;39.40;;;;;;5071732;28;20037;-50
2022/02/01 07:53:36;;;;;;;2.55;0.10;;;18.70;38.80;;;;;;5068052;28;20063;-50
2022/02/01 07:56:03;;;;;;;0.15;0.15;;;18.70;38.90;;;;;;5080016;28;20037;-52
2022/02/01 07:58:32;;;;;;;1.40;0.10;;;18.70;38.90;;;;;;5078408;28;20046;-52
2022/02/01 08:00:59;;;;;;;2.80;0.10;;;18.70;38.90;;;;;;5070943;28;20059;-52
2022/02/01 08:03:26;;;;;;;0.70;0.10;;;18.70;38.90;;;;;;5074163;28;20039;-51
2022/02/01 08:05:54;;;;;;;2.63;0.10;;;18.70;38.90;;;;;;5073623;28;20457;-53
2022/02/01 08:08:21;;;;;;;1.65;0.68;;;18.70;38.90;;;;;;5073955;28;20119;-49
2022/02/01 08:10:52;;;;;;;1.25;0.22;;;18.70;38.90;;;;;;5073184;28;20052;-53
2022/02/01 08:14:07;;;;;;;0.68;0.10;;;18.70;39.00;;;;;;5076476;28;20197;-52
2022/02/01 08:19:23;;;;;;;3.50;0.10;;;18.70;39.00;;;;;;5072043;28;20055;-52
2022/02/01 08:21:52;;;;;;;2.05;0.17;;;18.70;39.10;;;;;;5073689;28;20062;-50
2022/02/01 08:24:19;;;;;;;1.50;0.17;;;18.70;39.20;;;;;;5073351;28;20036;-52
2022/02/01 08:26:46;;;;;;;0.50;0.10;;;18.70;39.20;;;;;;5073707;28;20044;-52
2022/02/01 08:29:14;;;;;;;0.30;0.10;;;18.70;39.10;;;;;;5069137;28;20033;-50
2022/02/01 08:31:42;;;;;;;0.93;0.25;;;18.70;39.20;;;;;;5077016;28;20040;-53
2022/02/01 08:34:09;;;;;;;0.38;0.13;;;18.70;39.20;;;;;;5071160;28;20032;-53
2022/02/01 08:36:36;;;;;;;2.17;0.20;;;18.70;39.20;;;;;;5073903;28;20058;-53
2022/02/01 08:39:04;;;;;;;0.57;0.30;;;18.70;39.20;;;;;;5071296;28;20047;-52
2022/02/01 08:41:31;;;;;;;1.90;0.20;;;18.70;39.20;;;;;;5071793;28;20128;-52
2022/02/01 08:43:59;;;;;;;0.82;0.30;;;18.70;39.20;;;;;;5067916;28;20048;-52
2022/02/01 08:46:26;;;;;;;2.83;0.10;;;18.70;39.20;;;;;;5074212;28;20048;-49
2022/02/01 08:48:55;;;;;;;0.75;0.17;;;18.70;39.20;;;;;;5076095;28;20067;-47
2022/02/01 08:51:24;;;;;;;0.75;0.45;;;18.70;39.20;;;;;;5071019;28;20048;-51
2022/02/01 08:53:57;;;;;;;1.42;0.10;;;18.80;39.20;;;;;;5068963;28;20047;-52
2022/02/01 08:59:08;;;;;;;1.38;0.17;;;18.80;39.20;;;;;;5072611;28;20045;-49
2022/02/01 09:01:35;;;;;;;0.80;0.35;;;18.70;39.20;;;;;;5071722;28;20059;-49
2022/02/01 09:04:04;;;;;;;2.20;0.20;;;18.80;39.30;;;;;;5073911;28;20036;-51
2022/02/01 09:06:32;;;;;;;1.35;0.10;;;18.80;39.30;;;;;;5074053;28;20036;-49
2022/02/01 09:08:59;;;;;;;0.45;0.17;;;18.80;39.30;;;;;;5071933;28;20036;-48
2022/02/01 09:11:26;;;;;;;2.15;0.10;;;18.80;39.30;;;;;;5066642;28;20740;-54
2022/02/01 09:13:53;;;;;;;1.13;0.10;;;18.80;39.30;;;;;;5074375;28;20044;-53
2022/02/01 09:16:21;;;;;;;1.85;0.10;;;18.80;39.30;;;;;;5076753;28;20056;-53
2022/02/01 09:18:49;;;;;;;1.42;0.20;;;18.80;39.30;;;;;;5070922;28;20051;-49
2022/02/01 09:21:18;;;;;;;1.85;0.30;;;18.80;39.40;;;;;;5071342;28;20530;-50
2022/02/01 09:23:45;;;;;;;0.88;0.10;;;18.80;39.40;;;;;;5071647;28;20078;-52
2022/02/01 09:26:12;;;;;;;4.35;0.20;;;18.80;39.40;;;;;;5068175;28;20044;-51
2022/02/01 09:28:39;;;;;;;0.47;0.10;;;18.80;39.40;;;;;;5076634;28;20047;-51
2022/02/01 09:31:08;;;;;;;2.92;0.35;;;18.80;39.40;;;;;;5076628;28;20113;-51
2022/02/01 09:33:35;;;;;;;0.65;0.13;;;18.80;39.40;;;;;;5070145;28;20048;-53
2022/02/01 09:36:02;;;;;;;0.73;0.10;;;18.80;39.40;;;;;;5069478;28;20040;-51
2022/02/01 09:38:32;;;;;;;1.55;0.10;;;18.80;39.40;;;;;;5069032;28;20055;-51
2022/02/01 09:41:00;;;;;;;3.70;0.20;;;18.90;39.50;;;;;;5071317;28;20131;-51
2022/02/01 09:43:27;;;;;;;2.03;0.20;;;18.90;39.50;;;;;;5070366;28;20040;-48
2022/02/01 09:45:56;;;;;;;0.57;0.10;;;18.90;39.50;;;;;;5073074;28;20059;-51
2022/02/01 09:48:23;;;;;;;1.15;0.35;;;18.90;39.60;;;;;;5073143;28;20040;-51
2022/02/01 09:50:51;;;;;;;0.82;0.10;;;18.90;39.60;;;;;;5071407;28;20055;-52
2022/02/01 09:53:20;;;;;;;2.20;0.10;;;18.90;39.60;;;;;;5067072;28;20044;-52
2022/02/01 09:55:49;;;;;;;2.67;0.20;;;18.90;39.60;;;;;;5077954;28;20047;-54
2022/02/01 09:58:17;;;;;;;1.05;0.20;;;18.90;39.60;;;;;;5078519;28;20109;-53
2022/02/01 10:00:45;;;;;;;2.13;0.30;;;18.90;39.60;;;;;;5070008;28;20056;-50
2022/02/01 10:03:16;;;;;;;0.70;0.38;;;18.90;39.70;;;;;;5070102;28;20532;-50
2022/02/01 10:05:44;;;;;;;0.47;0.10;;;18.90;39.60;;;;;;5069119;28;20046;-49
2022/02/01 10:08:12;;;;;;;1.77;0.17;;;18.90;39.70;;;;;;5066611;28;20048;-52
2022/02/01 10:10:39;;;;;;;0.22;0.10;;;18.90;39.70;;;;;;5070503;28;20075;-52
2022/02/01 10:13:13;;;;;;;1.60;0.15;;;18.90;39.70;;;;;;5073903;28;20045;-47
2022/02/01 10:15:41;;;;;;;1.27;0.28;;;18.90;39.70;;;;;;5070640;28;20542;-52
2022/02/01 10:18:09;;;;;;;0.65;0.30;;;19.00;39.70;;;;;;5065070;28;20124;-47
2022/02/01 10:20:39;;;;;;;1.85;0.20;;;19.00;39.70;;;;;;5070183;28;20690;-48
2022/02/01 10:23:18;;;;;;;0.20;0.10;;;18.90;39.70;;;;;;5070644;28;20159;-49
2022/02/01 10:25:58;;;;;;;1.02;0.10;;;19.00;39.80;;;;;;5072485;28;20117;-47
2022/02/01 10:28:33;;;;;;;0.63;0.20;;;19.00;39.80;;;;;;5072172;28;20040;-49
2022/02/01 10:31:05;;;;;;;2.92;0.57;;;18.90;39.80;;;;;;5073543;28;20040;-49
2022/02/01 10:36:14;;;;;;;1.75;0.10;;;19.00;39.90;;;;;;5059384;28;20559;-47
2022/02/01 10:38:41;;;;;;;0.30;0.10;;;19.00;39.90;;;;;;5067782;28;20124;-51
2022/02/01 10:41:12;;;;;;;1.90;0.75;;;19.00;39.90;;;;;;5073359;28;20052;-49
2022/02/01 10:43:40;;;;;;;0.93;0.30;;;19.00;39.90;;;;;;5070533;28;20048;-51
2022/02/01 10:46:09;;;;;;;1.50;0.20;;;19.00;39.90;;;;;;5072958;28;20048;-51
2022/02/01 10:48:38;;;;;;;0.45;0.20;;;19.00;40.00;;;;;;5074590;28;20127;-50
2022/02/01 10:51:08;;;;;;;1.45;0.10;;;19.00;39.90;;;;;;5071803;28;20192;-50
2022/02/01 10:53:36;;;;;;;3.58;0.20;;;19.10;40.00;;;;;;5066880;28;20059;-49
2022/02/01 10:56:07;;;;;;;1.08;0.10;;;19.00;39.90;;;;;;5073835;28;20037;-51
2022/02/01 10:58:34;;;;;;;1.02;0.30;;;19.00;39.90;;;;;;5080569;28;20129;-48
2022/02/01 11:01:05;;;;;;;0.30;0.10;;;19.10;40.10;;;;;;5075117;28;20785;-47
2022/02/01 11:03:33;;;;;;;1.27;0.10;;;19.10;40.10;;;;;;5087756;28;20119;-51
2022/02/01 11:06:02;;;;;;;1.55;0.10;;;19.10;40.10;;;;;;5072249;28;20044;-53
2022/02/01 11:08:31;;;;;;;3.95;0.20;;;19.10;40.10;;;;;;5068358;28;20050;-48
2022/02/01 11:11:01;;;;;;;1.00;0.10;;;19.10;40.10;;;;;;5076843;28;20045;-49
2022/02/01 11:13:38;;;;;;;0.25;0.10;;;19.10;40.10;;;;;;5084138;28;20058;-52
2022/02/01 11:16:08;;;;;;;0.57;0.10;;;19.10;40.20;;;;;;5071287;28;20394;-51
2022/02/01 11:18:36;;;;;;;1.15;0.43;;;19.10;40.10;;;;;;5088507;28;20075;-51
2022/02/01 11:21:11;;;;;;;1.20;0.10;;;19.10;40.10;;;;;;5071236;28;20127;-48
2022/02/01 11:23:47;;;;;;;3.53;1.08;;;19.20;40.20;;;;;;5079048;28;20047;-53
2022/02/01 11:26:32;;;;;;;0.40;0.10;;;19.20;40.20;;;;;;5069478;28;20067;-51
2022/02/01 11:31:46;;;;;;;0.10;0.03;;;19.20;40.20;;;;;;5075305;28;20075;-51
2022/02/01 11:34:19;;;;;;;1.33;0.30;;;19.20;40.20;;;;;;5071072;28;20412;-52
2022/02/01 11:36:46;;;;;;;0.28;0.10;;;19.20;40.20;;;;;;5075424;28;20040;-48
2022/02/01 11:39:14;;;;;;;0.73;0.10;;;19.20;40.20;;;;;;5073569;28;20044;-47
2022/02/01 11:41:43;;;;;;;1.38;0.10;;;19.30;40.30;;;;;;5073315;28;20226;-48
2022/02/01 11:44:12;;;;;;;1.80;0.35;;;19.30;40.30;;;;;;5070754;28;20045;-48
2022/02/01 11:46:40;;;;;;;0.73;0.73;;;19.30;40.30;;;;;;5077364;28;20041;-53
2022/02/01 11:49:08;;;;;;;0.55;0.10;;;19.30;40.30;;;;;;5080047;28;20112;-53
2022/02/01 11:51:35;;;;;;;0.57;0.15;;;19.30;40.30;;;;;;5073203;28;20037;-51
2022/02/01 11:54:04;;;;;;;0.55;0.10;;;19.30;40.20;;;;;;5079435;28;20465;-52
2022/02/01 11:56:33;;;;;;;1.58;0.17;;;19.30;40.30;;;;;;5067765;28;20077;-53
2022/02/01 11:59:03;;;;;;;1.83;0.25;;;19.30;40.30;;;;;;5084545;28;20060;-50
2022/02/01 12:01:35;;;;;;;0.52;0.10;;;19.30;40.30;;;;;;5075303;28;20118;-48
2022/02/01 12:04:05;;;;;;;0.73;0.10;;;19.30;40.30;;;;;;5075490;28;20040;-49
2022/02/01 12:06:43;;;;;;;0.13;0.10;;;19.30;40.30;;;;;;5071458;28;20152;-50
2022/02/01 12:09:18;;;;;;;0.73;0.10;;;19.40;40.30;;;;;;5072314;28;20044;-54
2022/02/01 12:11:46;;;;;;;0.70;0.45;;;19.40;40.40;;;;;;5068524;28;20592;-55
2022/02/01 12:14:14;;;;;;;1.00;0.30;;;19.30;40.30;;;;;;5074435;28;20572;-49
2022/02/01 12:16:47;;;;;;;0.55;0.40;;;19.40;40.40;;;;;;5072701;28;20049;-48
2022/02/01 12:19:20;;;;;;;0.57;0.20;;;19.40;40.40;;;;;;5076976;28;20044;-53
2022/02/01 12:21:57;;;;;;;1.65;0.40;;;19.40;40.40;;;;;;5075351;28;20113;-50
2022/02/01 12:24:26;;;;;;;1.13;0.20;;;19.40;40.40;;;;;;5071532;28;20504;-51
2022/02/01 12:26:53;;;;;;;2.08;0.30;;;19.40;40.40;;;;;;5069545;28;20036;-48
2022/02/01 12:29:20;;;;;;;2.97;0.43;;;19.40;40.40;;;;;;5078438;28;20361;-50
2022/02/01 12:31:48;;;;;;;0.35;0.35;;;19.40;40.50;;;;;;5080271;28;20048;-52
2022/02/01 12:34:19;;;;;;;0.30;0.10;;;19.40;40.50;;;;;;5070940;28;20049;-51
2022/02/01 12:36:50;;;;;;;1.88;0.43;;;19.40;40.50;;;;;;5073581;28;20054;-51
2022/02/01 12:39:23;;;;;;;1.10;0.10;;;19.40;40.50;;;;;;5072838;28;20047;-49
2022/02/01 12:41:58;;;;;;;0.45;0.20;;;19.40;40.50;;;;;;5072430;28;20048;-46
2022/02/01 12:47:18;;;;;;;0.95;0.25;;;19.40;40.60;;;;;;5071421;28;20123;-50
2022/02/01 12:49:49;;;;;;;0.75;0.20;;;19.40;40.60;;;;;;5086617;28;20981;-46
2022/02/01 12:52:23;;;;;;;0.32;0.17;;;19.40;40.60;;;;;;5076370;28;20059;-49
2022/02/01 12:54:59;;;;;;;0.65;0.20;;;19.40;40.70;;;;;;5075453;28;20028;-47
2022/02/01 12:57:27;;;;;;;0.50;0.20;;;19.40;40.70;;;;;;5071094;28;20127;-47
2022/02/01 12:59:58;;;;;;;0.43;0.20;;;19.40;40.70;;;;;;5068902;28;20039;-49
2022/02/01 13:02:26;;;;;;;0.80;0.10;;;19.40;40.70;;;;;;5069984;28;20400;-48
2022/02/01 13:04:55;;;;;;;1.95;0.20;;;19.40;40.80;;;;;;5076648;28;20052;-50
2022/02/01 13:07:43;;;;;;;1.65;0.20;;;19.40;40.80;;;;;;5070449;28;20044;-52
2022/02/01 13:13:13;;;;;;;0.50;0.10;;;19.40;40.80;;;;;;5074974;28;20055;-47
2022/02/01 13:15:43;;;;;;;0.45;0.10;;;19.40;40.90;;;;;;5071010;28;20574;-49
2022/02/01 13:18:26;;;;;;;0.30;0.10;;;19.40;40.90;;;;;;5071638;28;20041;-49
2022/02/01 13:21:00;;;;;;;1.67;0.10;;;19.40;41.00;;;;;;5072007;28;20040;-47
2022/02/01 13:23:40;;;;;;;0.30;0.10;;;19.40;41.00;;;;;;5071124;28;21206;-47
2022/02/01 13:26:08;;;;;;;0.10;0.10;;;19.40;41.00;;;;;;5066272;28;20048;-47
2022/02/01 13:28:36;;;;;;;0.57;0.10;;;19.40;41.00;;;;;;5070651;28;20139;-47
2022/02/01 13:31:07;;;;;;;0.32;0.10;;;19.40;41.60;;;;;;5075995;28;20036;-47
2022/02/01 13:33:46;;;;;;;0.30;0.10;;;19.50;41.10;;;;;;5073166;28;20106;-49
2022/02/01 13:36:13;;;;;;;1.73;0.20;;;19.50;41.10;;;;;;5070989;28;20043;-50
2022/02/01 13:38:52;;;;;;;0.80;0.20;;;19.50;41.10;;;;;;5069837;28;20140;-51
2022/02/01 13:41:20;;;;;;;1.75;0.10;;;19.50;41.10;;;;;;5082313;28;20056;-49
2022/02/01 13:43:48;;;;;;;0.85;0.40;;;19.50;41.20;;;;;;5082942;28;20072;-51
2022/02/01 13:46:21;;;;;;;1.80;0.20;;;19.50;41.20;;;;;;5075661;28;20539;-48
2022/02/01 13:48:59;;;;;;;0.80;0.20;;;19.50;41.20;;;;;;5069888;28;20040;-51
2022/02/01 13:51:27;;;;;;;0.28;0.10;;;19.50;41.20;;;;;;5070249;28;20040;-51
2022/02/01 13:53:59;;;;;;;0.95;0.20;;;19.50;41.20;;;;;;5068102;28;20051;-49
2022/02/01 13:56:28;;;;;;;2.95;0.20;;;19.50;41.30;;;;;;5073468;28;20519;-52
2022/02/01 13:59:07;;;;;;;0.22;0.10;;;19.50;41.90;;;;;;5085218;28;20896;-50
2022/02/01 14:01:35;;;;;;;1.20;0.10;;;19.50;41.30;;;;;;5069326;28;20036;-51
2022/02/01 14:04:10;;;;;;;1.50;0.30;;;19.50;41.30;;;;;;5073697;28;20512;-49
2022/02/01 14:06:47;;;;;;;0.50;0.10;;;19.50;41.30;;;;;;5069809;28;20070;-50
2022/02/01 14:09:28;;;;;;;0.40;0.15;;;19.50;41.30;;;;;;5070740;28;20044;-50